sensor_id;sensor_type;location;lat;lon;timestamp;pressure;altitude;pressure_sealevel;temperature;humidity
70833;BME280;58452;59.418;17.962;2022-12-31T00:01:17;99496.75;;;3.96;84.52
70833;BME280;58452;59.418;17.962;2022-12-31T00:03:44;99506.44;;;4.02;84.88
70833;BME280;58452;59.418;17.962;2022-12-31T00:06:15;99503.06;;;4.02;84.65
70833;BME280;58452;59.418;17.962;2022-12-31T00:08:42;99499.97;;;4.08;85.12
70833;BME280;58452;59.418;17.962;2022-12-31T00:11:07;99496.75;;;4.06;84.98
70833;BME280;58452;59.418;17.962;2022-12-31T00:13:33;99471.91;;;4.08;85.71
70833;BME280;58452;59.418;17.962;2022-12-31T00:16:13;99476.06;;;4.09;86.58
70833;BME280;58452;59.418;17.962;2022-12-31T00:18:42;99466.78;;;4.08;86.80
70833;BME280;58452;59.418;17.962;2022-12-31T00:21:08;99444.91;;;4.05;87.20
70833;BME280;58452;59.418;17.962;2022-12-31T00:23:35;99435.50;;;4.15;87.19
70833;BME280;58452;59.418;17.962;2022-12-31T00:26:06;99439.78;;;4.15;87.69
70833;BME280;58452;59.418;17.962;2022-12-31T00:28:33;99437.78;;;4.18;86.94
70833;BME280;58452;59.418;17.962;2022-12-31T00:33:34;99418.72;;;4.32;86.99
70833;BME280;58452;59.418;17.962;2022-12-31T00:38:41;99424.22;;;4.37;86.62
70833;BME280;58452;59.418;17.962;2022-12-31T00:41:08;99427.84;;;4.44;86.28
70833;BME280;58452;59.418;17.962;2022-12-31T00:43:34;99433.91;;;4.43;86.49
70833;BME280;58452;59.418;17.962;2022-12-31T00:46:00;99428.53;;;4.46;86.49
70833;BME280;58452;59.418;17.962;2022-12-31T00:48:26;99444.00;;;4.54;86.71
70833;BME280;58452;59.418;17.962;2022-12-31T00:50:52;99418.03;;;4.49;85.97
70833;BME280;58452;59.418;17.962;2022-12-31T00:53:17;99415.50;;;4.49;86.03
70833;BME280;58452;59.418;17.962;2022-12-31T00:55:43;99425.56;;;4.60;85.74
70833;BME280;58452;59.418;17.962;2022-12-31T00:58:08;99398.16;;;4.62;85.84
70833;BME280;58452;59.418;17.962;2022-12-31T01:00:35;99417.75;;;4.71;86.08
70833;BME280;58452;59.418;17.962;2022-12-31T01:03:01;99394.47;;;4.74;86.13
70833;BME280;58452;59.418;17.962;2022-12-31T01:05:27;99382.53;;;4.65;85.94
70833;BME280;58452;59.418;17.962;2022-12-31T01:07:54;99396.75;;;4.77;85.56
70833;BME280;58452;59.418;17.962;2022-12-31T01:10:19;99397.97;;;4.73;85.81
70833;BME280;58452;59.418;17.962;2022-12-31T01:13:04;99396.75;;;4.77;86.13
70833;BME280;58452;59.418;17.962;2022-12-31T01:15:34;99378.75;;;4.79;86.39
70833;BME280;58452;59.418;17.962;2022-12-31T01:18:01;99362.59;;;4.78;87.02
70833;BME280;58452;59.418;17.962;2022-12-31T01:20:27;99364.75;;;4.73;86.31
70833;BME280;58452;59.418;17.962;2022-12-31T01:22:52;99347.25;;;4.78;86.23
70833;BME280;58452;59.418;17.962;2022-12-31T01:25:18;99343.50;;;4.82;85.98
70833;BME280;58452;59.418;17.962;2022-12-31T01:27:44;99334.06;;;4.83;86.60
70833;BME280;58452;59.418;17.962;2022-12-31T01:30:10;99330.28;;;4.87;85.86
70833;BME280;58452;59.418;17.962;2022-12-31T01:32:35;99337.56;;;4.91;85.95
70833;BME280;58452;59.418;17.962;2022-12-31T01:35:00;99326.00;;;4.87;85.78
70833;BME280;58452;59.418;17.962;2022-12-31T01:37:27;99299.22;;;4.91;86.25
70833;BME280;58452;59.418;17.962;2022-12-31T01:39:52;99290.97;;;4.98;85.09
70833;BME280;58452;59.418;17.962;2022-12-31T01:42:17;99276.03;;;4.93;85.89
70833;BME280;58452;59.418;17.962;2022-12-31T01:44:48;99282.06;;;5.02;85.34
70833;BME280;58452;59.418;17.962;2022-12-31T01:47:17;99276.94;;;5.02;84.76
70833;BME280;58452;59.418;17.962;2022-12-31T01:52:30;99254.88;;;5.01;84.61
70833;BME280;58452;59.418;17.962;2022-12-31T01:55:02;99253.56;;;4.97;85.26
70833;BME280;58452;59.418;17.962;2022-12-31T01:57:30;99242.50;;;5.06;84.47
70833;BME280;58452;59.418;17.962;2022-12-31T01:59:57;99238.53;;;5.11;84.24
70833;BME280;58452;59.418;17.962;2022-12-31T02:02:24;99225.25;;;5.08;84.01
70833;BME280;58452;59.418;17.962;2022-12-31T02:04:52;99203.16;;;5.07;83.93
70833;BME280;58452;59.418;17.962;2022-12-31T02:07:19;99204.88;;;5.16;84.17
70833;BME280;58452;59.418;17.962;2022-12-31T02:09:45;99200.69;;;5.15;83.10
70833;BME280;58452;59.418;17.962;2022-12-31T02:12:11;99184.13;;;5.19;83.15
70833;BME280;58452;59.418;17.962;2022-12-31T02:14:39;99163.06;;;5.25;82.84
70833;BME280;58452;59.418;17.962;2022-12-31T02:22:51;99138.53;;;5.32;83.00
70833;BME280;58452;59.418;17.962;2022-12-31T02:28:23;99147.06;;;5.40;83.67
70833;BME280;58452;59.418;17.962;2022-12-31T02:30:55;99138.88;;;5.37;83.75
70833;BME280;58452;59.418;17.962;2022-12-31T02:33:34;99129.09;;;5.32;84.81
70833;BME280;58452;59.418;17.962;2022-12-31T02:36:11;99100.75;;;5.26;84.81
70833;BME280;58452;59.418;17.962;2022-12-31T02:38:42;99079.88;;;5.13;85.88
70833;BME280;58452;59.418;17.962;2022-12-31T02:41:13;99060.72;;;5.17;86.63
70833;BME280;58452;59.418;17.962;2022-12-31T02:43:58;99045.38;;;5.17;86.71
70833;BME280;58452;59.418;17.962;2022-12-31T02:46:37;99049.03;;;5.14;86.74
70833;BME280;58452;59.418;17.962;2022-12-31T02:49:15;99071.16;;;5.23;86.02
70833;BME280;58452;59.418;17.962;2022-12-31T02:51:56;99070.16;;;5.16;86.44
70833;BME280;58452;59.418;17.962;2022-12-31T02:54:32;99072.03;;;5.14;87.14
70833;BME280;58452;59.418;17.962;2022-12-31T02:59:38;99073.94;;;5.12;87.71
70833;BME280;58452;59.418;17.962;2022-12-31T03:02:27;99059.72;;;5.10;88.09
70833;BME280;58452;59.418;17.962;2022-12-31T03:04:56;99065.19;;;4.97;88.69
70833;BME280;58452;59.418;17.962;2022-12-31T03:07:22;99056.78;;;5.05;89.04
70833;BME280;58452;59.418;17.962;2022-12-31T03:09:49;99059.47;;;5.03;88.48
70833;BME280;58452;59.418;17.962;2022-12-31T03:12:15;99047.16;;;4.99;89.08
70833;BME280;58452;59.418;17.962;2022-12-31T03:15:00;99029.84;;;4.92;88.83
70833;BME280;58452;59.418;17.962;2022-12-31T03:17:25;99013.25;;;4.97;88.88
70833;BME280;58452;59.418;17.962;2022-12-31T03:19:51;99004.19;;;4.84;89.87
70833;BME280;58452;59.418;17.962;2022-12-31T03:22:39;99010.63;;;4.88;89.68
70833;BME280;58452;59.418;17.962;2022-12-31T03:25:11;98984.63;;;4.93;89.03
70833;BME280;58452;59.418;17.962;2022-12-31T03:27:56;98990.69;;;4.92;89.60
70833;BME280;58452;59.418;17.962;2022-12-31T03:30:22;98982.47;;;4.80;90.13
70833;BME280;58452;59.418;17.962;2022-12-31T03:32:49;98974.50;;;4.83;90.70
70833;BME280;58452;59.418;17.962;2022-12-31T03:35:17;98969.72;;;4.88;90.37
70833;BME280;58452;59.418;17.962;2022-12-31T03:37:45;98975.16;;;4.85;90.26
70833;BME280;58452;59.418;17.962;2022-12-31T03:40:12;98983.75;;;4.84;90.87
70833;BME280;58452;59.418;17.962;2022-12-31T03:42:38;98979.75;;;4.82;90.87
70833;BME280;58452;59.418;17.962;2022-12-31T03:45:04;98956.94;;;4.88;90.83
70833;BME280;58452;59.418;17.962;2022-12-31T03:47:30;98943.09;;;4.91;90.51
70833;BME280;58452;59.418;17.962;2022-12-31T03:49:55;98941.75;;;5.05;90.38
70833;BME280;58452;59.418;17.962;2022-12-31T03:52:21;98935.75;;;4.96;90.66
70833;BME280;58452;59.418;17.962;2022-12-31T03:54:46;98940.38;;;4.92;90.52
70833;BME280;58452;59.418;17.962;2022-12-31T03:57:12;98928.81;;;4.80;91.06
70833;BME280;58452;59.418;17.962;2022-12-31T03:59:37;98929.34;;;4.92;91.18
70833;BME280;58452;59.418;17.962;2022-12-31T04:02:03;98931.38;;;4.80;91.80
70833;BME280;58452;59.418;17.962;2022-12-31T04:04:29;98908.69;;;4.85;91.25
70833;BME280;58452;59.418;17.962;2022-12-31T04:06:54;98919.63;;;4.96;90.86
70833;BME280;58452;59.418;17.962;2022-12-31T04:09:20;98906.56;;;4.99;91.36
70833;BME280;58452;59.418;17.962;2022-12-31T04:11:45;98903.50;;;4.95;90.51
70833;BME280;58452;59.418;17.962;2022-12-31T04:14:10;98898.97;;;4.89;91.47
70833;BME280;58452;59.418;17.962;2022-12-31T04:16:36;98904.53;;;4.84;91.23
70833;BME280;58452;59.418;17.962;2022-12-31T04:19:02;98900.59;;;4.90;91.73
70833;BME280;58452;59.418;17.962;2022-12-31T04:21:28;98885.75;;;4.93;91.95
70833;BME280;58452;59.418;17.962;2022-12-31T04:23:53;98897.59;;;4.95;91.83
70833;BME280;58452;59.418;17.962;2022-12-31T04:26:19;98902.38;;;4.98;91.75
70833;BME280;58452;59.418;17.962;2022-12-31T04:28:44;98890.56;;;4.97;91.48
70833;BME280;58452;59.418;17.962;2022-12-31T04:31:10;98894.56;;;4.99;91.36
70833;BME280;58452;59.418;17.962;2022-12-31T04:33:35;98884.44;;;4.89;92.16
70833;BME280;58452;59.418;17.962;2022-12-31T04:36:02;98897.59;;;4.95;92.56
70833;BME280;58452;59.418;17.962;2022-12-31T04:38:28;98881.94;;;4.98;91.63
70833;BME280;58452;59.418;17.962;2022-12-31T04:40:54;98871.66;;;4.89;92.09
70833;BME280;58452;59.418;17.962;2022-12-31T04:43:38;98872.59;;;4.88;92.61
70833;BME280;58452;59.418;17.962;2022-12-31T04:46:04;98866.19;;;4.84;92.97
70833;BME280;58452;59.418;17.962;2022-12-31T04:48:29;98859.19;;;4.86;92.90
70833;BME280;58452;59.418;17.962;2022-12-31T04:50:55;98858.56;;;4.92;92.46
70833;BME280;58452;59.418;17.962;2022-12-31T04:53:20;98865.50;;;5.00;92.41
70833;BME280;58452;59.418;17.962;2022-12-31T04:55:46;98856.06;;;5.01;91.69
70833;BME280;58452;59.418;17.962;2022-12-31T04:58:11;98864.69;;;5.00;92.05
70833;BME280;58452;59.418;17.962;2022-12-31T05:00:36;98855.16;;;5.10;92.32
70833;BME280;58452;59.418;17.962;2022-12-31T05:03:02;98832.97;;;5.18;91.49
70833;BME280;58452;59.418;17.962;2022-12-31T05:05:27;98852.94;;;5.15;91.39
70833;BME280;58452;59.418;17.962;2022-12-31T05:07:53;98849.75;;;5.13;91.10
70833;BME280;58452;59.418;17.962;2022-12-31T05:10:18;98858.19;;;5.05;91.29
70833;BME280;58452;59.418;17.962;2022-12-31T05:12:44;98853.25;;;5.12;91.43
70833;BME280;58452;59.418;17.962;2022-12-31T05:15:09;98841.44;;;5.19;90.94
70833;BME280;58452;59.418;17.962;2022-12-31T05:17:35;98838.59;;;5.22;91.01
70833;BME280;58452;59.418;17.962;2022-12-31T05:20:00;98849.13;;;5.19;91.26
70833;BME280;58452;59.418;17.962;2022-12-31T05:22:25;98837.59;;;5.15;91.17
70833;BME280;58452;59.418;17.962;2022-12-31T05:24:54;98841.44;;;5.19;90.46
70833;BME280;58452;59.418;17.962;2022-12-31T05:27:20;98837.75;;;5.13;91.34
70833;BME280;58452;59.418;17.962;2022-12-31T05:29:46;98840.78;;;5.09;90.03
70833;BME280;58452;59.418;17.962;2022-12-31T05:32:11;98830.59;;;5.17;90.05
70833;BME280;58452;59.418;17.962;2022-12-31T05:34:37;98834.41;;;5.13;90.51
70833;BME280;58452;59.418;17.962;2022-12-31T05:37:02;98850.25;;;5.16;89.85
70833;BME280;58452;59.418;17.962;2022-12-31T05:39:27;98846.22;;;5.14;90.02
70833;BME280;58452;59.418;17.962;2022-12-31T05:41:53;98847.19;;;5.13;89.88
70833;BME280;58452;59.418;17.962;2022-12-31T05:44:18;98853.44;;;5.18;89.82
70833;BME280;58452;59.418;17.962;2022-12-31T05:46:44;98853.56;;;5.09;89.94
70833;BME280;58452;59.418;17.962;2022-12-31T05:49:11;98871.19;;;5.20;90.44
70833;BME280;58452;59.418;17.962;2022-12-31T05:51:36;98873.09;;;5.18;90.53
70833;BME280;58452;59.418;17.962;2022-12-31T05:54:02;98893.53;;;5.10;90.79
70833;BME280;58452;59.418;17.962;2022-12-31T05:56:27;98869.53;;;5.11;90.69
70833;BME280;58452;59.418;17.962;2022-12-31T05:58:53;98879.13;;;5.09;90.93
70833;BME280;58452;59.418;17.962;2022-12-31T06:01:18;98887.94;;;5.14;90.79
70833;BME280;58452;59.418;17.962;2022-12-31T06:03:44;98896.75;;;5.20;91.09
70833;BME280;58452;59.418;17.962;2022-12-31T06:06:09;98894.53;;;5.25;90.76
70833;BME280;58452;59.418;17.962;2022-12-31T06:08:35;98899.56;;;5.34;90.17
70833;BME280;58452;59.418;17.962;2022-12-31T06:11:00;98899.56;;;5.34;90.21
70833;BME280;58452;59.418;17.962;2022-12-31T06:13:26;98894.94;;;5.38;89.32
70833;BME280;58452;59.418;17.962;2022-12-31T06:15:51;98901.94;;;5.36;89.07
70833;BME280;58452;59.418;17.962;2022-12-31T06:18:17;98912.66;;;5.31;89.74
70833;BME280;58452;59.418;17.962;2022-12-31T06:20:42;98907.72;;;5.38;89.59
70833;BME280;58452;59.418;17.962;2022-12-31T06:23:08;98917.22;;;5.54;88.78
70833;BME280;58452;59.418;17.962;2022-12-31T06:25:34;98922.47;;;5.52;88.80
70833;BME280;58452;59.418;17.962;2022-12-31T06:28:01;98918.97;;;5.53;88.68
70833;BME280;58452;59.418;17.962;2022-12-31T06:30:27;98919.28;;;5.50;89.20
70833;BME280;58452;59.418;17.962;2022-12-31T06:32:54;98916.09;;;5.56;88.77
70833;BME280;58452;59.418;17.962;2022-12-31T06:35:20;98923.47;;;5.59;88.74
70833;BME280;58452;59.418;17.962;2022-12-31T06:37:45;98930.19;;;5.60;88.41
70833;BME280;58452;59.418;17.962;2022-12-31T06:40:11;98933.06;;;5.57;88.57
70833;BME280;58452;59.418;17.962;2022-12-31T06:42:36;98939.41;;;5.45;88.90
70833;BME280;58452;59.418;17.962;2022-12-31T06:45:03;98928.41;;;5.53;88.47
70833;BME280;58452;59.418;17.962;2022-12-31T06:47:28;98939.41;;;5.45;87.78
70833;BME280;58452;59.418;17.962;2022-12-31T06:49:54;98938.16;;;5.49;87.69
70833;BME280;58452;59.418;17.962;2022-12-31T06:52:19;98935.13;;;5.54;86.77
70833;BME280;58452;59.418;17.962;2022-12-31T06:54:45;98941.53;;;5.58;86.67
70833;BME280;58452;59.418;17.962;2022-12-31T06:57:11;98959.59;;;5.56;87.02
70833;BME280;58452;59.418;17.962;2022-12-31T06:59:37;98955.59;;;5.54;87.66
70833;BME280;58452;59.418;17.962;2022-12-31T07:07:24;98941.53;;;5.58;87.20
70833;BME280;58452;59.418;17.962;2022-12-31T07:12:44;98969.78;;;5.48;87.26
70833;BME280;58452;59.418;17.962;2022-12-31T07:18:24;98957.63;;;5.42;87.48
70833;BME280;58452;59.418;17.962;2022-12-31T07:20:51;98962.13;;;5.48;87.86
70833;BME280;58452;59.418;17.962;2022-12-31T07:23:18;98962.06;;;5.32;88.06
70833;BME280;58452;59.418;17.962;2022-12-31T07:25:52;98957.13;;;5.38;88.54
70833;BME280;58452;59.418;17.962;2022-12-31T07:28:32;98965.34;;;5.50;87.68
70833;BME280;58452;59.418;17.962;2022-12-31T07:31:15;98946.16;;;5.54;87.56
70833;BME280;58452;59.418;17.962;2022-12-31T07:42:12;98970.72;;;5.39;88.52
70833;BME280;58452;59.418;17.962;2022-12-31T07:44:48;98966.56;;;5.38;88.67
70833;BME280;58452;59.418;17.962;2022-12-31T07:47:20;98962.19;;;5.30;87.83
70833;BME280;58452;59.418;17.962;2022-12-31T07:49:47;98961.69;;;5.27;88.47
70833;BME280;58452;59.418;17.962;2022-12-31T07:52:12;98981.22;;;5.36;88.09
70833;BME280;58452;59.418;17.962;2022-12-31T07:54:38;98987.81;;;5.38;87.68
70833;BME280;58452;59.418;17.962;2022-12-31T07:57:03;98984.28;;;5.39;88.24
70833;BME280;58452;59.418;17.962;2022-12-31T08:00:00;98994.75;;;5.46;87.41
70833;BME280;58452;59.418;17.962;2022-12-31T08:13:16;98966.94;;;5.51;86.61
70833;BME280;58452;59.418;17.962;2022-12-31T08:15:42;98960.28;;;5.32;87.01
70833;BME280;58452;59.418;17.962;2022-12-31T08:18:08;98972.00;;;5.43;87.51
70833;BME280;58452;59.418;17.962;2022-12-31T08:20:43;98965.00;;;5.45;86.57
70833;BME280;58452;59.418;17.962;2022-12-31T08:34:21;98995.03;;;5.43;86.65
70833;BME280;58452;59.418;17.962;2022-12-31T08:36:53;99006.28;;;5.50;86.68
70833;BME280;58452;59.418;17.962;2022-12-31T08:41:58;99015.16;;;5.38;86.85
70833;BME280;58452;59.418;17.962;2022-12-31T08:44:38;99006.56;;;5.47;86.91
70833;BME280;58452;59.418;17.962;2022-12-31T08:47:16;98999.59;;;5.57;86.22
70833;BME280;58452;59.418;17.962;2022-12-31T08:49:47;99011.13;;;5.61;85.86
70833;BME280;58452;59.418;17.962;2022-12-31T08:52:20;99017.19;;;5.60;85.55
70833;BME280;58452;59.418;17.962;2022-12-31T08:54:46;99023.53;;;5.48;85.97
70833;BME280;58452;59.418;17.962;2022-12-31T09:05:24;99024.63;;;5.46;85.39
70833;BME280;58452;59.418;17.962;2022-12-31T09:10:53;99039.69;;;5.49;85.75
70833;BME280;58452;59.418;17.962;2022-12-31T09:16:19;99056.13;;;5.46;85.15
70833;BME280;58452;59.418;17.962;2022-12-31T09:18:47;99057.16;;;5.53;84.99
70833;BME280;58452;59.418;17.962;2022-12-31T09:21:14;99051.84;;;5.47;85.06
70833;BME280;58452;59.418;17.962;2022-12-31T09:24:28;99058.97;;;5.43;85.47
70833;BME280;58452;59.418;17.962;2022-12-31T09:27:08;99061.69;;;5.41;84.65
70833;BME280;58452;59.418;17.962;2022-12-31T09:37:13;99076.59;;;5.46;84.54
70833;BME280;58452;59.418;17.962;2022-12-31T09:39:42;99080.91;;;5.46;84.59
70833;BME280;58452;59.418;17.962;2022-12-31T09:53:38;99101.34;;;5.63;83.59
70833;BME280;58452;59.418;17.962;2022-12-31T09:56:14;99101.47;;;5.62;83.87
70833;BME280;58452;59.418;17.962;2022-12-31T09:59:01;99114.75;;;5.57;83.93
70833;BME280;58452;59.418;17.962;2022-12-31T10:15:35;99102.16;;;5.64;84.34
70833;BME280;58452;59.418;17.962;2022-12-31T10:18:47;99086.03;;;5.71;84.24
70833;BME280;58452;59.418;17.962;2022-12-31T10:29:57;99065.94;;;5.84;83.51
70833;BME280;58452;59.418;17.962;2022-12-31T10:35:42;99084.44;;;5.70;84.29
70833;BME280;58452;59.418;17.962;2022-12-31T10:49:09;99098.41;;;5.76;83.28
70833;BME280;58452;59.418;17.962;2022-12-31T11:07:49;99094.56;;;6.06;82.23
70833;BME280;58452;59.418;17.962;2022-12-31T11:13:39;99082.13;;;6.11;81.66
70833;BME280;58452;59.418;17.962;2022-12-31T11:18:50;99088.53;;;6.15;81.15
70833;BME280;58452;59.418;17.962;2022-12-31T11:35:59;99078.81;;;5.93;81.38
70833;BME280;58452;59.418;17.962;2022-12-31T11:38:42;99066.66;;;5.95;81.56
70833;BME280;58452;59.418;17.962;2022-12-31T11:41:32;99067.28;;;5.88;81.86
70833;BME280;58452;59.418;17.962;2022-12-31T11:44:17;99062.84;;;5.99;81.20
70833;BME280;58452;59.418;17.962;2022-12-31T11:49:39;99059.34;;;6.00;81.12
70833;BME280;58452;59.418;17.962;2022-12-31T11:52:42;99063.56;;;6.09;81.09
70833;BME280;58452;59.418;17.962;2022-12-31T11:58:18;99064.81;;;6.13;80.94
70833;BME280;58452;59.418;17.962;2022-12-31T12:00:59;99061.00;;;6.17;80.58
70833;BME280;58452;59.418;17.962;2022-12-31T12:03:25;99060.81;;;6.10;81.48
70833;BME280;58452;59.418;17.962;2022-12-31T12:05:51;99059.41;;;6.24;80.83
70833;BME280;58452;59.418;17.962;2022-12-31T12:08:17;99042.13;;;6.18;81.08
70833;BME280;58452;59.418;17.962;2022-12-31T12:10:48;99047.28;;;6.26;80.90
70833;BME280;58452;59.418;17.962;2022-12-31T12:13:19;99024.34;;;6.24;80.65
70833;BME280;58452;59.418;17.962;2022-12-31T12:15:56;99014.16;;;6.32;80.46
70833;BME280;58452;59.418;17.962;2022-12-31T12:23:34;99022.34;;;6.44;80.19
70833;BME280;58452;59.418;17.962;2022-12-31T12:26:00;99024.56;;;6.39;79.77
70833;BME280;58452;59.418;17.962;2022-12-31T12:28:29;99024.56;;;6.39;80.45
70833;BME280;58452;59.418;17.962;2022-12-31T12:31:01;99024.25;;;6.34;80.24
70833;BME280;58452;59.418;17.962;2022-12-31T12:33:29;99020.06;;;6.33;80.22
70833;BME280;58452;59.418;17.962;2022-12-31T12:36:11;99019.13;;;6.34;80.28
70833;BME280;58452;59.418;17.962;2022-12-31T12:38:37;99008.53;;;6.29;80.31
70833;BME280;58452;59.418;17.962;2022-12-31T12:41:05;99030.31;;;6.33;80.59
70833;BME280;58452;59.418;17.962;2022-12-31T12:43:34;99023.56;;;6.24;80.67
70833;BME280;58452;59.418;17.962;2022-12-31T12:46:03;99027.41;;;6.28;80.29
70833;BME280;58452;59.418;17.962;2022-12-31T12:48:42;99020.38;;;6.30;80.59
70833;BME280;58452;59.418;17.962;2022-12-31T12:57:28;99015.91;;;6.40;80.50
70833;BME280;58452;59.418;17.962;2022-12-31T13:00:14;99004.88;;;6.48;79.76
70833;BME280;58452;59.418;17.962;2022-12-31T13:24:28;98992.03;;;6.31;79.41
70833;BME280;58452;59.418;17.962;2022-12-31T13:27:23;99008.53;;;6.29;79.56
70833;BME280;58452;59.418;17.962;2022-12-31T13:29:53;98993.00;;;6.22;79.56
70833;BME280;58452;59.418;17.962;2022-12-31T13:32:24;98995.25;;;6.33;79.34
70833;BME280;58452;59.418;17.962;2022-12-31T13:34:58;98995.75;;;6.37;79.74
70833;BME280;58452;59.418;17.962;2022-12-31T13:37:30;98998.31;;;6.37;79.16
70833;BME280;58452;59.418;17.962;2022-12-31T13:40:05;98986.47;;;6.44;78.84
70833;BME280;58452;59.418;17.962;2022-12-31T13:42:41;99004.69;;;6.33;78.83
70833;BME280;58452;59.418;17.962;2022-12-31T13:45:17;98999.91;;;6.30;79.09
70833;BME280;58452;59.418;17.962;2022-12-31T13:47:52;99005.34;;;6.27;79.48
70833;BME280;58452;59.418;17.962;2022-12-31T13:50:30;99004.34;;;6.28;79.02
70833;BME280;58452;59.418;17.962;2022-12-31T13:55:41;99001.31;;;6.24;79.23
70833;BME280;58452;59.418;17.962;2022-12-31T14:01:22;99002.88;;;6.17;79.09
70833;BME280;58452;59.418;17.962;2022-12-31T14:03:58;98999.25;;;6.20;78.85
70833;BME280;58452;59.418;17.962;2022-12-31T14:06:45;99000.53;;;6.32;78.56
70833;BME280;58452;59.418;17.962;2022-12-31T14:09:32;98987.09;;;6.38;77.89
70833;BME280;58452;59.418;17.962;2022-12-31T14:12:36;99002.47;;;6.38;77.38
70833;BME280;58452;59.418;17.962;2022-12-31T14:15:21;98998.91;;;6.23;78.35
70833;BME280;58452;59.418;17.962;2022-12-31T14:21:07;98991.88;;;6.25;78.12
70833;BME280;58452;59.418;17.962;2022-12-31T14:27:02;98987.22;;;6.12;78.59
70833;BME280;58452;59.418;17.962;2022-12-31T14:37:29;98984.31;;;6.07;78.31
70833;BME280;58452;59.418;17.962;2022-12-31T14:42:51;98988.16;;;6.11;78.41
70833;BME280;58452;59.418;17.962;2022-12-31T14:45:34;98989.91;;;6.11;78.45
70833;BME280;58452;59.418;17.962;2022-12-31T14:48:35;98988.63;;;6.07;78.10
70833;BME280;58452;59.418;17.962;2022-12-31T14:51:04;98987.00;;;6.06;78.14
70833;BME280;58452;59.418;17.962;2022-12-31T14:53:31;98986.88;;;6.07;78.35
70833;BME280;58452;59.418;17.962;2022-12-31T14:55:57;98984.78;;;6.11;78.14
70833;BME280;58452;59.418;17.962;2022-12-31T14:58:36;98981.41;;;6.10;77.61
70833;BME280;58452;59.418;17.962;2022-12-31T15:01:18;98987.50;;;6.09;77.38
70833;BME280;58452;59.418;17.962;2022-12-31T15:03:46;98989.78;;;6.20;77.61
70833;BME280;58452;59.418;17.962;2022-12-31T15:14:23;98986.81;;;5.99;77.65
70833;BME280;58452;59.418;17.962;2022-12-31T15:24:55;99014.41;;;5.79;78.01
70833;BME280;58452;59.418;17.962;2022-12-31T15:27:35;99023.19;;;5.77;78.28
70833;BME280;58452;59.418;17.962;2022-12-31T15:30:04;99020.31;;;5.80;77.68
70833;BME280;58452;59.418;17.962;2022-12-31T15:32:42;99023.38;;;5.83;77.96
70833;BME280;58452;59.418;17.962;2022-12-31T15:40:21;99020.69;;;5.85;77.26
70833;BME280;58452;59.418;17.962;2022-12-31T15:42:58;99022.09;;;5.79;77.33
70833;BME280;58452;59.418;17.962;2022-12-31T15:45:31;99018.25;;;5.75;77.62
70833;BME280;58452;59.418;17.962;2022-12-31T15:48:00;99018.88;;;5.77;77.19
70833;BME280;58452;59.418;17.962;2022-12-31T15:50:26;99023.38;;;5.83;77.45
70833;BME280;58452;59.418;17.962;2022-12-31T15:52:58;99008.25;;;5.90;76.94
70833;BME280;58452;59.418;17.962;2022-12-31T15:55:46;99014.19;;;5.91;76.38
70833;BME280;58452;59.418;17.962;2022-12-31T15:58:23;99020.25;;;5.89;76.38
70833;BME280;58452;59.418;17.962;2022-12-31T16:01:31;99011.25;;;5.85;76.77
70833;BME280;58452;59.418;17.962;2022-12-31T16:04:03;99026.59;;;5.85;76.80
70833;BME280;58452;59.418;17.962;2022-12-31T16:06:33;99039.94;;;5.89;76.56
70833;BME280;58452;59.418;17.962;2022-12-31T16:09:00;99017.06;;;5.96;76.00
70833;BME280;58452;59.418;17.962;2022-12-31T16:11:26;99025.09;;;6.01;76.03
70833;BME280;58452;59.418;17.962;2022-12-31T16:13:55;99035.94;;;5.95;76.23
70833;BME280;58452;59.418;17.962;2022-12-31T16:16:28;99039.78;;;5.91;76.50
70833;BME280;58452;59.418;17.962;2022-12-31T16:18:54;99046.19;;;5.95;76.56
70833;BME280;58452;59.418;17.962;2022-12-31T16:23:54;99053.84;;;5.86;76.36
70833;BME280;58452;59.418;17.962;2022-12-31T16:26:23;99055.47;;;5.96;76.30
70833;BME280;58452;59.418;17.962;2022-12-31T16:28:49;99055.78;;;5.93;76.25
70833;BME280;58452;59.418;17.962;2022-12-31T16:31:17;99071.59;;;5.88;76.53
70833;BME280;58452;59.418;17.962;2022-12-31T16:33:44;99067.28;;;5.88;76.47
70833;BME280;58452;59.418;17.962;2022-12-31T16:36:21;99068.91;;;5.89;76.65
70833;BME280;58452;59.418;17.962;2022-12-31T16:38:48;99069.09;;;5.96;75.84
70833;BME280;58452;59.418;17.962;2022-12-31T16:41:18;99053.56;;;5.98;76.29
70833;BME280;58452;59.418;17.962;2022-12-31T16:43:46;99072.13;;;6.00;76.07
70833;BME280;58452;59.418;17.962;2022-12-31T16:46:25;99050.84;;;5.99;75.81
70833;BME280;58452;59.418;17.962;2022-12-31T16:48:57;99067.97;;;5.99;75.73
70833;BME280;58452;59.418;17.962;2022-12-31T16:51:30;99073.09;;;5.99;76.22
70833;BME280;58452;59.418;17.962;2022-12-31T16:53:57;99070.03;;;5.95;75.64
70833;BME280;58452;59.418;17.962;2022-12-31T16:56:36;99073.72;;;5.93;76.17
70833;BME280;58452;59.418;17.962;2022-12-31T16:59:06;99063.19;;;6.04;75.89
70833;BME280;58452;59.418;17.962;2022-12-31T17:01:37;99072.97;;;6.08;75.26
70833;BME280;58452;59.418;17.962;2022-12-31T17:04:07;99078.81;;;5.93;76.34
70833;BME280;58452;59.418;17.962;2022-12-31T17:06:34;99084.56;;;5.86;75.88
70833;BME280;58452;59.418;17.962;2022-12-31T17:09:08;99082.63;;;5.88;75.36
70833;BME280;58452;59.418;17.962;2022-12-31T17:11:50;99093.56;;;5.99;75.03
70833;BME280;58452;59.418;17.962;2022-12-31T17:14:22;99079.78;;;5.92;75.68
70833;BME280;58452;59.418;17.962;2022-12-31T17:17:06;99090.69;;;5.94;74.81
70833;BME280;58452;59.418;17.962;2022-12-31T17:19:46;99090.38;;;5.97;75.11
70833;BME280;58452;59.418;17.962;2022-12-31T17:24:48;99104.34;;;5.84;75.22
70833;BME280;58452;59.418;17.962;2022-12-31T17:27:14;99109.56;;;5.93;75.02
70833;BME280;58452;59.418;17.962;2022-12-31T17:29:39;99109.56;;;5.93;74.79
70833;BME280;58452;59.418;17.962;2022-12-31T17:32:35;99097.38;;;5.86;75.20
70833;BME280;58452;59.418;17.962;2022-12-31T17:35:01;99101.50;;;5.87;75.06
70833;BME280;58452;59.418;17.962;2022-12-31T17:37:29;99111.22;;;5.84;75.47